sensor_id;sensor_type;location;lat;lon;timestamp;pressure;altitude;pressure_sealevel;temperature;humidity
42671;BME280;28283;55.426;37.756;2023-12-20T00:04:02;97637.94;;;3.35;93.62
42671;BME280;28283;55.426;37.756;2023-12-20T00:09:02;97661.88;;;3.42;94.32
42671;BME280;28283;55.426;37.756;2023-12-20T00:14:03;97627.88;;;3.24;94.65
42671;BME280;28283;55.426;37.756;2023-12-20T00:19:04;97622.78;;;3.29;94.53
42671;BME280;28283;55.426;37.756;2023-12-20T00:24:04;97661.56;;;3.65;94.09
42671;BME280;28283;55.426;37.756;2023-12-20T00:29:05;97548.88;;;2.91;93.19
42671;BME280;28283;55.426;37.756;2023-12-20T00:34:06;97660.13;;;3.56;94.38
42671;BME280;28283;55.426;37.756;2023-12-20T00:39:06;97648.25;;;3.58;94.32
42671;BME280;28283;55.426;37.756;2023-12-20T00:44:07;97666.69;;;3.67;94.11
42671;BME280;28283;55.426;37.756;2023-12-20T00:49:08;97664.47;;;3.70;93.40
42671;BME280;28283;55.426;37.756;2023-12-20T00:54:08;97689.25;;;3.84;93.24
42671;BME280;28283;55.426;37.756;2023-12-20T00:59:09;97555.00;;;3.33;92.81
42671;BME280;28283;55.426;37.756;2023-12-20T01:04:11;97647.53;;;3.85;92.59
42671;BME280;28283;55.426;37.756;2023-12-20T01:09:11;97630.97;;;3.76;92.87
42671;BME280;28283;55.426;37.756;2023-12-20T01:14:12;97659.19;;;3.77;92.69
42671;BME280;28283;55.426;37.756;2023-12-20T01:19:13;97639.06;;;3.54;93.17
42671;BME280;28283;55.426;37.756;2023-12-20T01:24:14;97625.66;;;3.28;93.15
42671;BME280;28283;55.426;37.756;2023-12-20T01:29:14;97624.53;;;3.57;93.33
42671;BME280;28283;55.426;37.756;2023-12-20T01:34:16;97632.31;;;3.52;93.76
42671;BME280;28283;55.426;37.756;2023-12-20T01:39:17;97632.22;;;3.38;93.78
42671;BME280;28283;55.426;37.756;2023-12-20T01:44:17;97632.69;;;3.49;94.15
42671;BME280;28283;55.426;37.756;2023-12-20T01:49:18;97630.06;;;3.14;94.46
42671;BME280;28283;55.426;37.756;2023-12-20T01:54:19;97644.69;;;3.03;95.79
42671;BME280;28283;55.426;37.756;2023-12-20T01:59:20;97596.63;;;2.84;96.26
42671;BME280;28283;55.426;37.756;2023-12-20T02:04:21;97614.63;;;2.96;96.93
42671;BME280;28283;55.426;37.756;2023-12-20T02:09:22;97605.25;;;2.93;97.17
42671;BME280;28283;55.426;37.756;2023-12-20T02:14:23;97577.03;;;2.85;97.32
42671;BME280;28283;55.426;37.756;2023-12-20T02:19:24;97581.53;;;2.92;96.85
42671;BME280;28283;55.426;37.756;2023-12-20T02:24:25;97593.59;;;3.29;96.90
42671;BME280;28283;55.426;37.756;2023-12-20T02:29:25;97559.66;;;2.83;97.00
42671;BME280;28283;55.426;37.756;2023-12-20T02:34:27;97569.94;;;2.99;97.28
42671;BME280;28283;55.426;37.756;2023-12-20T02:39:27;97601.38;;;2.96;97.68
42671;BME280;28283;55.426;37.756;2023-12-20T02:44:28;97540.53;;;2.59;97.73
42671;BME280;28283;55.426;37.756;2023-12-20T02:49:29;97540.00;;;2.71;97.96
42671;BME280;28283;55.426;37.756;2023-12-20T02:54:29;97574.81;;;2.89;97.83
42671;BME280;28283;55.426;37.756;2023-12-20T02:59:30;97606.34;;;3.05;97.96
42671;BME280;28283;55.426;37.756;2023-12-20T03:04:30;97538.50;;;2.61;97.53
42671;BME280;28283;55.426;37.756;2023-12-20T03:09:31;97541.06;;;2.83;96.69
42671;BME280;28283;55.426;37.756;2023-12-20T03:14:32;97618.72;;;3.33;96.19
42671;BME280;28283;55.426;37.756;2023-12-20T03:19:33;97590.44;;;3.12;96.49
42671;BME280;28283;55.426;37.756;2023-12-20T03:24:33;97554.91;;;3.13;96.24
42671;BME280;28283;55.426;37.756;2023-12-20T03:29:34;97576.53;;;3.03;95.90
42671;BME280;28283;55.426;37.756;2023-12-20T03:34:35;97598.00;;;3.15;96.55
42671;BME280;28283;55.426;37.756;2023-12-20T03:39:35;97556.66;;;2.99;96.68
42671;BME280;28283;55.426;37.756;2023-12-20T03:44:39;97571.78;;;2.99;96.79
42671;BME280;28283;55.426;37.756;2023-12-20T03:49:40;97564.03;;;2.97;96.25
42671;BME280;28283;55.426;37.756;2023-12-20T03:54:41;97589.22;;;3.15;96.46
42671;BME280;28283;55.426;37.756;2023-12-20T03:59:44;97603.41;;;3.35;96.53
42671;BME280;28283;55.426;37.756;2023-12-20T04:04:45;97570.66;;;3.15;96.56
42671;BME280;28283;55.426;37.756;2023-12-20T04:09:45;97490.03;;;2.39;95.96
42671;BME280;28283;55.426;37.756;2023-12-20T04:14:50;97594.34;;;3.23;95.35
42671;BME280;28283;55.426;37.756;2023-12-20T04:19:51;97609.97;;;3.39;95.06
42671;BME280;28283;55.426;37.756;2023-12-20T04:24:52;97605.63;;;3.32;94.98
42671;BME280;28283;55.426;37.756;2023-12-20T04:29:53;97608.59;;;3.50;94.59
42671;BME280;28283;55.426;37.756;2023-12-20T04:34:53;97611.25;;;3.50;94.05
42671;BME280;28283;55.426;37.756;2023-12-20T04:39:54;97638.59;;;3.44;93.89
42671;BME280;28283;55.426;37.756;2023-12-20T04:44:55;97578.63;;;3.15;93.78
42671;BME280;28283;55.426;37.756;2023-12-20T04:49:56;97635.16;;;3.50;93.00
42671;BME280;28283;55.426;37.756;2023-12-20T04:54:56;97571.41;;;3.02;94.28
42671;BME280;28283;55.426;37.756;2023-12-20T04:59:57;97577.38;;;3.11;93.01
42671;BME280;28283;55.426;37.756;2023-12-20T05:04:58;97628.00;;;3.51;92.71
42671;BME280;28283;55.426;37.756;2023-12-20T05:09:59;97631.56;;;3.30;93.03
42671;BME280;28283;55.426;37.756;2023-12-20T05:14:59;97644.38;;;3.19;93.63
42671;BME280;28283;55.426;37.756;2023-12-20T05:20:00;97620.03;;;3.09;93.92
42671;BME280;28283;55.426;37.756;2023-12-20T05:25:01;97648.13;;;3.25;93.13
42671;BME280;28283;55.426;37.756;2023-12-20T05:30:02;97657.00;;;3.11;93.38
42671;BME280;28283;55.426;37.756;2023-12-20T05:35:05;97600.31;;;2.90;93.85
42671;BME280;28283;55.426;37.756;2023-12-20T05:40:06;97676.88;;;3.21;93.03
42671;BME280;28283;55.426;37.756;2023-12-20T05:45:10;97682.06;;;3.36;92.83
42671;BME280;28283;55.426;37.756;2023-12-20T05:50:11;97633.84;;;2.98;93.30
42671;BME280;28283;55.426;37.756;2023-12-20T05:55:12;97660.53;;;3.24;93.06
42671;BME280;28283;55.426;37.756;2023-12-20T06:00:14;97670.88;;;3.48;92.91
42671;BME280;28283;55.426;37.756;2023-12-20T06:05:15;97596.19;;;2.81;92.96
42671;BME280;28283;55.426;37.756;2023-12-20T06:10:16;97627.84;;;3.17;92.70
42671;BME280;28283;55.426;37.756;2023-12-20T06:15:17;97656.28;;;3.23;92.74
42671;BME280;28283;55.426;37.756;2023-12-20T06:20:18;97662.34;;;3.17;93.59
42671;BME280;28283;55.426;37.756;2023-12-20T06:25:18;97665.84;;;3.18;92.94
42671;BME280;28283;55.426;37.756;2023-12-20T06:30:19;97576.63;;;2.54;92.48
42671;BME280;28283;55.426;37.756;2023-12-20T06:35:20;97661.06;;;3.41;91.50
42671;BME280;28283;55.426;37.756;2023-12-20T06:40:20;97612.94;;;3.16;90.45
42671;BME280;28283;55.426;37.756;2023-12-20T06:45:21;97668.28;;;3.54;90.89
42671;BME280;28283;55.426;37.756;2023-12-20T06:50:22;97670.88;;;3.48;91.40
42671;BME280;28283;55.426;37.756;2023-12-20T06:55:22;97655.03;;;3.26;91.95
42671;BME280;28283;55.426;37.756;2023-12-20T07:00:23;97673.06;;;3.31;91.76
42671;BME280;28283;55.426;37.756;2023-12-20T07:05:24;97678.19;;;3.32;92.45
42671;BME280;28283;55.426;37.756;2023-12-20T07:10:25;97668.09;;;3.21;92.48
42671;BME280;28283;55.426;37.756;2023-12-20T07:15:25;97677.00;;;3.41;92.15
42671;BME280;28283;55.426;37.756;2023-12-20T07:20:27;97686.25;;;3.52;91.54
42671;BME280;28283;55.426;37.756;2023-12-20T07:25:28;97693.19;;;3.53;91.26
42671;BME280;28283;55.426;37.756;2023-12-20T07:30:29;97629.63;;;3.10;91.43
42671;BME280;28283;55.426;37.756;2023-12-20T07:35:29;97691.03;;;3.29;92.25
42671;BME280;28283;55.426;37.756;2023-12-20T07:40:30;97688.00;;;3.38;92.03
42671;BME280;28283;55.426;37.756;2023-12-20T07:45:30;97660.97;;;3.21;92.42
42671;BME280;28283;55.426;37.756;2023-12-20T07:50:34;97713.59;;;3.46;92.11
42671;BME280;28283;55.426;37.756;2023-12-20T07:55:39;97714.25;;;3.55;91.92
42671;BME280;28283;55.426;37.756;2023-12-20T08:00:39;97712.91;;;3.72;91.62
42671;BME280;28283;55.426;37.756;2023-12-20T08:05:40;97663.19;;;3.24;91.84
42671;BME280;28283;55.426;37.756;2023-12-20T08:10:41;97702.16;;;3.46;91.73
42671;BME280;28283;55.426;37.756;2023-12-20T08:15:41;97705.94;;;3.71;91.30
42671;BME280;28283;55.426;37.756;2023-12-20T08:20:42;97640.09;;;3.18;91.40
42671;BME280;28283;55.426;37.756;2023-12-20T08:25:43;97708.13;;;3.54;92.10
42671;BME280;28283;55.426;37.756;2023-12-20T08:30:44;97640.47;;;3.50;90.54
42671;BME280;28283;55.426;37.756;2023-12-20T08:35:45;97658.78;;;3.87;90.57
42671;BME280;28283;55.426;37.756;2023-12-20T08:40:45;97685.34;;;3.73;90.99
42671;BME280;28283;55.426;37.756;2023-12-20T08:45:46;97606.09;;;3.00;91.78
42671;BME280;28283;55.426;37.756;2023-12-20T08:50:47;97696.22;;;3.92;91.42
42671;BME280;28283;55.426;37.756;2023-12-20T08:55:50;97704.09;;;3.65;91.21
42671;BME280;28283;55.426;37.756;2023-12-20T09:00:50;97664.97;;;3.46;92.23
42671;BME280;28283;55.426;37.756;2023-12-20T09:05:51;97600.28;;;3.18;91.95
42671;BME280;28283;55.426;37.756;2023-12-20T09:10:52;97666.00;;;3.51;91.89
42671;BME280;28283;55.426;37.756;2023-12-20T09:15:54;97644.13;;;3.49;91.37
42671;BME280;28283;55.426;37.756;2023-12-20T09:20:55;97671.63;;;3.76;91.05
42671;BME280;28283;55.426;37.756;2023-12-20T09:25:56;97610.72;;;3.81;91.11
42671;BME280;28283;55.426;37.756;2023-12-20T09:30:57;97686.75;;;3.76;90.29
42671;BME280;28283;55.426;37.756;2023-12-20T09:35:58;97547.63;;;2.87;91.75
42671;BME280;28283;55.426;37.756;2023-12-20T09:40:59;97694.84;;;4.03;90.11
42671;BME280;28283;55.426;37.756;2023-12-20T09:46:03;97681.19;;;3.57;91.11
42671;BME280;28283;55.426;37.756;2023-12-20T09:51:06;97658.09;;;3.65;91.40
42671;BME280;28283;55.426;37.756;2023-12-20T09:56:06;97689.97;;;4.13;90.17
42671;BME280;28283;55.426;37.756;2023-12-20T10:01:07;97656.72;;;3.75;90.75
42671;BME280;28283;55.426;37.756;2023-12-20T10:06:08;97699.91;;;3.91;90.38
42671;BME280;28283;55.426;37.756;2023-12-20T10:11:09;97697.66;;;3.94;90.16
42671;BME280;28283;55.426;37.756;2023-12-20T10:16:10;97598.44;;;3.19;90.99
42671;BME280;28283;55.426;37.756;2023-12-20T10:21:10;97687.91;;;4.08;89.78
42671;BME280;28283;55.426;37.756;2023-12-20T10:26:41;97669.81;;;3.83;89.94
42671;BME280;28283;55.426;37.756;2023-12-20T10:31:42;97637.63;;;3.52;90.66
42671;BME280;28283;55.426;37.756;2023-12-20T10:36:43;97618.84;;;3.18;91.02
42671;BME280;28283;55.426;37.756;2023-12-20T10:41:45;97673.19;;;3.57;91.15
42671;BME280;28283;55.426;37.756;2023-12-20T10:46:46;97706.72;;;3.58;91.57
42671;BME280;28283;55.426;37.756;2023-12-20T10:51:54;97645.09;;;3.35;92.10
42671;BME280;28283;55.426;37.756;2023-12-20T10:56:57;97673.81;;;3.59;91.48
42671;BME280;28283;55.426;37.756;2023-12-20T11:01:59;97662.72;;;3.49;91.48
42671;BME280;28283;55.426;37.756;2023-12-20T11:07:20;97652.91;;;3.50;91.61
42671;BME280;28283;55.426;37.756;2023-12-20T11:12:32;97687.22;;;3.86;91.80
42671;BME280;28283;55.426;37.756;2023-12-20T11:17:39;97686.38;;;3.79;90.75
42671;BME280;28283;55.426;37.756;2023-12-20T11:22:52;97687.09;;;3.59;91.92
42671;BME280;28283;55.426;37.756;2023-12-20T11:28:10;97660.44;;;3.39;92.76
42671;BME280;28283;55.426;37.756;2023-12-20T11:33:12;97673.72;;;3.39;92.39
42671;BME280;28283;55.426;37.756;2023-12-20T11:38:13;97691.03;;;3.29;92.76
42671;BME280;28283;55.426;37.756;2023-12-20T11:43:29;97706.59;;;3.38;93.67
42671;BME280;28283;55.426;37.756;2023-12-20T11:48:31;97653.53;;;3.10;93.33
42671;BME280;28283;55.426;37.756;2023-12-20T11:53:32;97707.06;;;3.49;92.87
42671;BME280;28283;55.426;37.756;2023-12-20T11:58:34;97682.59;;;3.18;93.29
42671;BME280;28283;55.426;37.756;2023-12-20T12:03:35;97683.09;;;3.35;93.66
42671;BME280;28283;55.426;37.756;2023-12-20T12:08:36;97641.94;;;3.18;93.31
42671;BME280;28283;55.426;37.756;2023-12-20T12:13:38;97721.69;;;3.31;93.55
42671;BME280;28283;55.426;37.756;2023-12-20T12:18:39;97710.31;;;3.44;93.46
42671;BME280;28283;55.426;37.756;2023-12-20T12:23:42;97712.06;;;3.30;93.06
42671;BME280;28283;55.426;37.756;2023-12-20T12:28:43;97703.28;;;3.01;93.15
42671;BME280;28283;55.426;37.756;2023-12-20T12:33:43;97728.44;;;3.05;93.43
42671;BME280;28283;55.426;37.756;2023-12-20T12:38:45;97734.22;;;3.16;94.12
42671;BME280;28283;55.426;37.756;2023-12-20T12:43:45;97684.00;;;2.86;94.20
42671;BME280;28283;55.426;37.756;2023-12-20T12:48:46;97687.84;;;2.83;94.19
42671;BME280;28283;55.426;37.756;2023-12-20T12:53:46;97728.88;;;3.09;94.55
42671;BME280;28283;55.426;37.756;2023-12-20T12:58:47;97718.34;;;2.94;94.21
42671;BME280;28283;55.426;37.756;2023-12-20T13:03:48;97745.13;;;2.99;94.25
42671;BME280;28283;55.426;37.756;2023-12-20T13:08:49;97698.59;;;2.75;94.30
42671;BME280;28283;55.426;37.756;2023-12-20T13:13:50;97731.41;;;2.96;94.60
42671;BME280;28283;55.426;37.756;2023-12-20T13:18:51;97719.69;;;2.83;94.56
42671;BME280;28283;55.426;37.756;2023-12-20T13:23:52;97746.72;;;2.94;94.85
42671;BME280;28283;55.426;37.756;2023-12-20T13:28:54;97733.81;;;2.91;94.70
42671;BME280;28283;55.426;37.756;2023-12-20T13:33:55;97755.94;;;2.98;94.44
42671;BME280;28283;55.426;37.756;2023-12-20T13:38:56;97736.44;;;2.84;93.91
42671;BME280;28283;55.426;37.756;2023-12-20T13:43:56;97731.25;;;2.76;93.54
42671;BME280;28283;55.426;37.756;2023-12-20T13:48:57;97769.44;;;3.03;93.33
42671;BME280;28283;55.426;37.756;2023-12-20T13:53:58;97744.78;;;2.81;92.96
42671;BME280;28283;55.426;37.756;2023-12-20T13:58:59;97787.75;;;3.19;92.80
42671;BME280;28283;55.426;37.756;2023-12-20T14:04:00;97756.16;;;2.75;92.81
42671;BME280;28283;55.426;37.756;2023-12-20T14:09:01;97792.88;;;3.21;93.45
42671;BME280;28283;55.426;37.756;2023-12-20T14:14:02;97800.59;;;3.16;92.32
42671;BME280;28283;55.426;37.756;2023-12-20T14:19:03;97773.00;;;3.38;91.58
42671;BME280;28283;55.426;37.756;2023-12-20T14:24:04;97778.75;;;2.92;92.07
42671;BME280;28283;55.426;37.756;2023-12-20T14:29:05;97805.00;;;3.02;92.12
42671;BME280;28283;55.426;37.756;2023-12-20T14:34:07;97785.19;;;3.04;93.06
42671;BME280;28283;55.426;37.756;2023-12-20T14:39:08;97724.91;;;2.48;93.38
42671;BME280;28283;55.426;37.756;2023-12-20T14:44:09;97784.91;;;2.93;93.46
42671;BME280;28283;55.426;37.756;2023-12-20T14:49:09;97748.19;;;2.96;92.70
42671;BME280;28283;55.426;37.756;2023-12-20T14:54:10;97729.50;;;2.61;92.24
42671;BME280;28283;55.426;37.756;2023-12-20T14:59:11;97711.19;;;2.45;93.47
42671;BME280;28283;55.426;37.756;2023-12-20T15:04:12;97727.53;;;2.48;93.79
42671;BME280;28283;55.426;37.756;2023-12-20T15:09:13;97779.03;;;2.76;94.94
42671;BME280;28283;55.426;37.756;2023-12-20T15:14:14;97768.84;;;2.79;94.35
42671;BME280;28283;55.426;37.756;2023-12-20T15:19:20;97760.63;;;2.74;94.30
42671;BME280;28283;55.426;37.756;2023-12-20T15:24:21;97740.25;;;2.53;94.40
42671;BME280;28283;55.426;37.756;2023-12-20T15:29:28;97691.66;;;2.31;94.86
42671;BME280;28283;55.426;37.756;2023-12-20T15:34:29;97757.06;;;2.82;94.30
42671;BME280;28283;55.426;37.756;2023-12-20T15:39:30;97762.72;;;2.57;94.90
42671;BME280;28283;55.426;37.756;2023-12-20T15:44:30;97784.91;;;2.71;95.25
42671;BME280;28283;55.426;37.756;2023-12-20T15:49:31;97770.31;;;2.60;94.96
42671;BME280;28283;55.426;37.756;2023-12-20T15:54:33;97804.66;;;2.68;94.98
42671;BME280;28283;55.426;37.756;2023-12-20T15:59:33;97751.28;;;2.35;94.90
42671;BME280;28283;55.426;37.756;2023-12-20T16:04:34;97822.81;;;2.86;94.76
42671;BME280;28283;55.426;37.756;2023-12-20T16:09:34;97813.69;;;2.74;94.26
42671;BME280;28283;55.426;37.756;2023-12-20T16:14:35;97728.22;;;2.14;94.78
42671;BME280;28283;55.426;37.756;2023-12-20T16:19:36;97786.88;;;2.47;94.26
42671;BME280;28283;55.426;37.756;2023-12-20T16:24:37;97819.59;;;2.70;95.16
42671;BME280;28283;55.426;37.756;2023-12-20T16:29:37;97798.25;;;2.41;95.68
42671;BME280;28283;55.426;37.756;2023-12-20T16:34:38;97802.16;;;2.60;94.54
42671;BME280;28283;55.426;37.756;2023-12-20T16:39:38;97810.72;;;2.62;94.84
42671;BME280;28283;55.426;37.756;2023-12-20T16:44:39;97803.25;;;2.51;95.07
42671;BME280;28283;55.426;37.756;2023-12-20T16:49:40;97822.25;;;2.70;94.81
42671;BME280;28283;55.426;37.756;2023-12-20T16:54:41;97784.41;;;2.24;94.51
42671;BME280;28283;55.426;37.756;2023-12-20T16:59:42;97835.06;;;2.51;95.30
42671;BME280;28283;55.426;37.756;2023-12-20T17:04:44;97850.25;;;2.57;95.57
42671;BME280;28283;55.426;37.756;2023-12-20T17:09:45;97834.63;;;2.47;95.81
42671;BME280;28283;55.426;37.756;2023-12-20T17:14:47;97871.00;;;2.68;95.38
42671;BME280;28283;55.426;37.756;2023-12-20T17:19:48;97865.31;;;2.72;95.00
42671;BME280;28283;55.426;37.756;2023-12-20T17:24:49;97828.22;;;2.57;95.08
42671;BME280;28283;55.426;37.756;2023-12-20T17:29:49;97844.19;;;2.63;95.28
42671;BME280;28283;55.426;37.756;2023-12-20T17:34:50;97789.13;;;2.29;95.56
42671;BME280;28283;55.426;37.756;2023-12-20T17:39:51;97782.84;;;2.15;95.49
42671;BME280;28283;55.426;37.756;2023-12-20T17:44:51;97822.84;;;2.50;95.62
42671;BME280;28283;55.426;37.756;2023-12-20T17:49:52;97835.97;;;2.58;95.59
42671;BME280;28283;55.426;37.756;2023-12-20T17:54:53;97835.34;;;2.56;95.51
42671;BME280;28283;55.426;37.756;2023-12-20T17:59:54;97795.06;;;2.31;95.74
42671;BME280;28283;55.426;37.756;2023-12-20T18:04:54;97838.38;;;2.53;95.30
42671;BME280;28283;55.426;37.756;2023-12-20T18:09:55;97791.91;;;2.21;95.76
42671;BME280;28283;55.426;37.756;2023-12-20T18:14:55;97805.94;;;2.36;95.78
42671;BME280;28283;55.426;37.756;2023-12-20T18:19:57;97832.41;;;2.66;95.94
42671;BME280;28283;55.426;37.756;2023-12-20T18:24:59;97805.75;;;2.38;95.15
42671;BME280;28283;55.426;37.756;2023-12-20T18:30:00;97824.59;;;2.43;95.52
42671;BME280;28283;55.426;37.756;2023-12-20T18:35:06;97836.81;;;2.44;95.70
42671;BME280;28283;55.426;37.756;2023-12-20T18:40:07;97781.94;;;2.08;96.00
42671;BME280;28283;55.426;37.756;2023-12-20T18:45:08;97855.38;;;2.59;95.42
42671;BME280;28283;55.426;37.756;2023-12-20T18:50:10;97839.47;;;2.44;95.11
42671;BME280;28283;55.426;37.756;2023-12-20T18:55:10;97849.81;;;2.54;95.50
42671;BME280;28283;55.426;37.756;2023-12-20T19:00:11;97826.72;;;2.33;95.03
42671;BME280;28283;55.426;37.756;2023-12-20T19:05:12;97806.16;;;2.20;95.32
42671;BME280;28283;55.426;37.756;2023-12-20T19:10:13;97830.75;;;2.28;95.85
42671;BME280;28283;55.426;37.756;2023-12-20T19:15:14;97806.53;;;2.17;95.67
42671;BME280;28283;55.426;37.756;2023-12-20T19:20:14;97842.44;;;2.34;95.69
42671;BME280;28283;55.426;37.756;2023-12-20T19:25:15;97774.84;;;1.94;95.14
42671;BME280;28283;55.426;37.756;2023-12-20T19:30:16;97843.38;;;2.26;95.16
42671;BME280;28283;55.426;37.756;2023-12-20T19:35:16;97839.41;;;2.22;95.10
42671;BME280;28283;55.426;37.756;2023-12-20T19:40:17;97821.34;;;2.11;95.14
42671;BME280;28283;55.426;37.756;2023-12-20T19:45:18;97804.91;;;1.86;95.22
42671;BME280;28283;55.426;37.756;2023-12-20T19:50:19;97829.78;;;2.00;95.81
42671;BME280;28283;55.426;37.756;2023-12-20T19:55:20;97785.63;;;1.77;95.63
42671;BME280;28283;55.426;37.756;2023-12-20T20:00:23;97830.09;;;2.12;95.90
42671;BME280;28283;55.426;37.756;2023-12-20T20:05:23;97846.22;;;2.10;95.45
42671;BME280;28283;55.426;37.756;2023-12-20T20:10:25;97766.28;;;1.62;95.59
42671;BME280;28283;55.426;37.756;2023-12-20T20:15:26;97802.72;;;1.89;95.60
42671;BME280;28283;55.426;37.756;2023-12-20T20:20:27;97786.19;;;1.87;95.97
42671;BME280;28283;55.426;37.756;2023-12-20T20:25:27;97786.19;;;1.87;96.29
42671;BME280;28283;55.426;37.756;2023-12-20T20:30:28;97789.94;;;1.93;96.50
42671;BME280;28283;55.426;37.756;2023-12-20T20:35:28;97814.66;;;2.15;96.45
42671;BME280;28283;55.426;37.756;2023-12-20T20:40:29;97768.28;;;1.89;95.86
42671;BME280;28283;55.426;37.756;2023-12-20T20:45:30;97801.41;;;2.15;95.91
42671;BME280;28283;55.426;37.756;2023-12-20T20:50:30;97778.59;;;1.99;96.04
42671;BME280;28283;55.426;37.756;2023-12-20T20:55:31;97806.72;;;2.15;95.96
42671;BME280;28283;55.426;37.756;2023-12-20T21:00:32;97799.97;;;2.13;96.51
42671;BME280;28283;55.426;37.756;2023-12-20T21:05:32;97776.03;;;2.06;96.30
42671;BME280;28283;55.426;37.756;2023-12-20T21:10:33;97758.19;;;2.15;96.81
42671;BME280;28283;55.426;37.756;2023-12-20T21:15:34;97723.63;;;2.08;96.77
42671;BME280;28283;55.426;37.756;2023-12-20T21:20:34;97725.19;;;2.17;96.44
42671;BME280;28283;55.426;37.756;2023-12-20T21:25:36;97727.00;;;2.17;96.41
42671;BME280;28283;55.426;37.756;2023-12-20T21:30:37;97726.19;;;2.16;96.67
42671;BME280;28283;55.426;37.756;2023-12-20T21:35:38;97702.06;;;2.11;96.33
42671;BME280;28283;55.426;37.756;2023-12-20T21:40:39;97705.63;;;2.18;96.42
42671;BME280;28283;55.426;37.756;2023-12-20T21:45:40;97697.59;;;2.12;96.53
42671;BME280;28283;55.426;37.756;2023-12-20T21:50:42;97672.91;;;2.11;96.60
42671;BME280;28283;55.426;37.756;2023-12-20T21:55:43;97632.50;;;1.87;96.36
42671;BME280;28283;55.426;37.756;2023-12-20T22:00:44;97610.44;;;1.80;95.96
42671;BME280;28283;55.426;37.756;2023-12-20T22:05:44;97647.63;;;2.08;96.54
42671;BME280;28283;55.426;37.756;2023-12-20T22:10:45;97567.72;;;1.68;96.53
42671;BME280;28283;55.426;37.756;2023-12-20T22:15:45;97608.56;;;1.96;96.60
42671;BME280;28283;55.426;37.756;2023-12-20T22:20:46;97552.84;;;1.67;96.28
42671;BME280;28283;55.426;37.756;2023-12-20T22:25:47;97582.38;;;1.86;96.25
42671;BME280;28283;55.426;37.756;2023-12-20T22:30:47;97594.53;;;2.02;96.95
42671;BME280;28283;55.426;37.756;2023-12-20T22:35:48;97590.06;;;2.02;97.11
42671;BME280;28283;55.426;37.756;2023-12-20T22:40:49;97546.47;;;1.83;97.13
42671;BME280;28283;55.426;37.756;2023-12-20T22:45:49;97496.53;;;1.59;96.74
42671;BME280;28283;55.426;37.756;2023-12-20T22:50:50;97526.03;;;1.77;96.74
42671;BME280;28283;55.426;37.756;2023-12-20T22:55:54;97521.06;;;1.89;96.81
42671;BME280;28283;55.426;37.756;2023-12-20T23:00:54;97539.66;;;1.96;96.64
42671;BME280;28283;55.426;37.756;2023-12-20T23:05:55;97553.09;;;1.94;96.82
42671;BME280;28283;55.426;37.756;2023-12-20T23:10:56;97553.91;;;1.95;96.29
42671;BME280;28283;55.426;37.756;2023-12-20T23:15:57;97528.94;;;1.61;96.33
42671;BME280;28283;55.426;37.756;2023-12-20T23:20:57;97497.41;;;1.44;95.96
42671;BME280;28283;55.426;37.756;2023-12-20T23:25:58;97498.81;;;1.40;95.87
42671;BME280;28283;55.426;37.756;2023-12-20T23:30:59;97539.09;;;1.57;95.71
42671;BME280;28283;55.426;37.756;2023-12-20T23:35:59;97556.91;;;1.48;95.76
42671;BME280;28283;55.426;37.756;2023-12-20T23:41:00;97423.50;;;0.70;95.27
42671;BME280;28283;55.426;37.756;2023-12-20T23:46:01;97524.13;;;1.28;95.15
42671;BME280;28283;55.426;37.756;2023-12-20T23:51:05;97490.41;;;1.00;95.46
42671;BME280;28283;55.426;37.756;2023-12-20T23:56:06;97515.19;;;1.14;95.99
